sensor_id;sensor_type;location;lat;lon;timestamp;P1;durP1;ratioP1;P2;durP2;ratioP2
36373;SDS011;22399;51.346;12.372;2023-06-10T00:00:49;4.03;;;1.73;;
36373;SDS011;22399;51.346;12.372;2023-06-10T00:03:18;5.65;;;2.03;;
36373;SDS011;22399;51.346;12.372;2023-06-10T00:05:51;6.45;;;2.50;;
36373;SDS011;22399;51.346;12.372;2023-06-10T00:08:20;5.75;;;2.05;;
36373;SDS011;22399;51.346;12.372;2023-06-10T00:10:48;7.03;;;2.35;;
36373;SDS011;22399;51.346;12.372;2023-06-10T00:13:17;9.20;;;3.03;;
36373;SDS011;22399;51.346;12.372;2023-06-10T00:15:45;6.30;;;2.45;;
36373;SDS011;22399;51.346;12.372;2023-06-10T00:18:14;5.82;;;1.88;;
36373;SDS011;22399;51.346;12.372;2023-06-10T00:20:43;5.72;;;1.88;;
36373;SDS011;22399;51.346;12.372;2023-06-10T00:23:14;7.25;;;3.22;;
36373;SDS011;22399;51.346;12.372;2023-06-10T00:25:43;3.47;;;2.00;;
36373;SDS011;22399;51.346;12.372;2023-06-10T00:28:11;13.82;;;2.42;;
36373;SDS011;22399;51.346;12.372;2023-06-10T00:30:39;9.07;;;2.30;;
36373;SDS011;22399;51.346;12.372;2023-06-10T00:33:09;3.17;;;1.70;;
36373;SDS011;22399;51.346;12.372;2023-06-10T00:35:38;3.90;;;1.83;;
36373;SDS011;22399;51.346;12.372;2023-06-10T00:38:06;9.27;;;2.25;;
36373;SDS011;22399;51.346;12.372;2023-06-10T00:40:39;6.43;;;2.08;;
36373;SDS011;22399;51.346;12.372;2023-06-10T00:43:08;7.18;;;1.92;;
36373;SDS011;22399;51.346;12.372;2023-06-10T00:45:37;10.88;;;2.47;;
36373;SDS011;22399;51.346;12.372;2023-06-10T00:48:06;5.65;;;2.38;;
36373;SDS011;22399;51.346;12.372;2023-06-10T00:50:35;4.90;;;2.03;;
36373;SDS011;22399;51.346;12.372;2023-06-10T00:53:11;5.75;;;2.08;;
36373;SDS011;22399;51.346;12.372;2023-06-10T00:55:41;11.75;;;2.30;;
36373;SDS011;22399;51.346;12.372;2023-06-10T00:58:10;4.82;;;1.98;;
36373;SDS011;22399;51.346;12.372;2023-06-10T01:00:38;3.53;;;1.85;;
36373;SDS011;22399;51.346;12.372;2023-06-10T01:03:07;6.70;;;1.55;;
36373;SDS011;22399;51.346;12.372;2023-06-10T01:05:36;6.50;;;2.28;;
36373;SDS011;22399;51.346;12.372;2023-06-10T01:08:07;8.88;;;2.45;;
36373;SDS011;22399;51.346;12.372;2023-06-10T01:10:43;10.20;;;2.30;;
36373;SDS011;22399;51.346;12.372;2023-06-10T01:13:19;6.50;;;2.40;;
36373;SDS011;22399;51.346;12.372;2023-06-10T01:15:50;4.18;;;2.10;;
36373;SDS011;22399;51.346;12.372;2023-06-10T01:18:20;10.07;;;2.00;;
36373;SDS011;22399;51.346;12.372;2023-06-10T01:20:48;7.57;;;2.85;;
36373;SDS011;22399;51.346;12.372;2023-06-10T01:23:20;7.97;;;2.40;;
36373;SDS011;22399;51.346;12.372;2023-06-10T01:25:49;7.00;;;2.00;;
36373;SDS011;22399;51.346;12.372;2023-06-10T01:28:24;7.70;;;2.42;;
36373;SDS011;22399;51.346;12.372;2023-06-10T01:30:58;5.05;;;2.03;;
36373;SDS011;22399;51.346;12.372;2023-06-10T01:33:35;9.63;;;2.97;;
36373;SDS011;22399;51.346;12.372;2023-06-10T01:36:06;7.22;;;2.72;;
36373;SDS011;22399;51.346;12.372;2023-06-10T01:38:38;10.90;;;2.70;;
36373;SDS011;22399;51.346;12.372;2023-06-10T01:41:10;6.53;;;2.78;;
36373;SDS011;22399;51.346;12.372;2023-06-10T01:43:40;11.15;;;2.67;;
36373;SDS011;22399;51.346;12.372;2023-06-10T01:46:10;5.75;;;2.70;;
36373;SDS011;22399;51.346;12.372;2023-06-10T01:48:41;11.68;;;3.15;;
36373;SDS011;22399;51.346;12.372;2023-06-10T01:51:10;11.88;;;3.40;;
36373;SDS011;22399;51.346;12.372;2023-06-10T01:53:40;9.95;;;3.15;;
36373;SDS011;22399;51.346;12.372;2023-06-10T01:56:08;14.57;;;3.78;;
36373;SDS011;22399;51.346;12.372;2023-06-10T01:58:43;7.57;;;3.15;;
36373;SDS011;22399;51.346;12.372;2023-06-10T02:01:12;16.20;;;3.90;;
36373;SDS011;22399;51.346;12.372;2023-06-10T02:03:41;11.98;;;3.67;;
36373;SDS011;22399;51.346;12.372;2023-06-10T02:06:10;10.40;;;3.85;;
36373;SDS011;22399;51.346;12.372;2023-06-10T02:08:39;8.93;;;3.38;;
36373;SDS011;22399;51.346;12.372;2023-06-10T02:11:08;16.75;;;3.65;;
36373;SDS011;22399;51.346;12.372;2023-06-10T02:13:37;12.85;;;3.78;;
36373;SDS011;22399;51.346;12.372;2023-06-10T02:16:06;11.57;;;3.50;;
36373;SDS011;22399;51.346;12.372;2023-06-10T02:18:36;10.07;;;2.85;;
36373;SDS011;22399;51.346;12.372;2023-06-10T02:21:07;13.38;;;3.45;;
36373;SDS011;22399;51.346;12.372;2023-06-10T02:23:36;9.02;;;3.60;;
36373;SDS011;22399;51.346;12.372;2023-06-10T02:26:06;6.30;;;3.42;;
36373;SDS011;22399;51.346;12.372;2023-06-10T02:28:35;12.73;;;3.65;;
36373;SDS011;22399;51.346;12.372;2023-06-10T02:31:03;15.80;;;4.32;;
36373;SDS011;22399;51.346;12.372;2023-06-10T02:33:32;9.27;;;3.38;;
36373;SDS011;22399;51.346;12.372;2023-06-10T02:36:01;6.13;;;3.13;;
36373;SDS011;22399;51.346;12.372;2023-06-10T02:38:30;11.55;;;3.63;;
36373;SDS011;22399;51.346;12.372;2023-06-10T02:40:59;10.80;;;3.10;;
36373;SDS011;22399;51.346;12.372;2023-06-10T02:43:29;8.60;;;3.10;;
36373;SDS011;22399;51.346;12.372;2023-06-10T02:45:58;12.82;;;3.45;;
36373;SDS011;22399;51.346;12.372;2023-06-10T02:48:27;9.73;;;3.10;;
36373;SDS011;22399;51.346;12.372;2023-06-10T02:50:56;9.85;;;3.40;;
36373;SDS011;22399;51.346;12.372;2023-06-10T02:53:36;6.45;;;2.97;;
36373;SDS011;22399;51.346;12.372;2023-06-10T02:56:09;11.00;;;3.88;;
36373;SDS011;22399;51.346;12.372;2023-06-10T02:58:40;8.88;;;3.08;;
36373;SDS011;22399;51.346;12.372;2023-06-10T03:01:12;8.18;;;3.38;;
36373;SDS011;22399;51.346;12.372;2023-06-10T03:03:48;8.10;;;3.38;;
36373;SDS011;22399;51.346;12.372;2023-06-10T03:06:18;17.10;;;4.20;;
36373;SDS011;22399;51.346;12.372;2023-06-10T03:08:46;6.82;;;3.28;;
36373;SDS011;22399;51.346;12.372;2023-06-10T03:11:17;9.15;;;2.55;;
36373;SDS011;22399;51.346;12.372;2023-06-10T03:13:49;13.20;;;3.28;;
36373;SDS011;22399;51.346;12.372;2023-06-10T03:16:18;7.80;;;2.90;;
36373;SDS011;22399;51.346;12.372;2023-06-10T03:18:47;6.22;;;3.25;;
36373;SDS011;22399;51.346;12.372;2023-06-10T03:21:16;6.35;;;2.90;;
36373;SDS011;22399;51.346;12.372;2023-06-10T03:23:45;11.93;;;3.25;;
36373;SDS011;22399;51.346;12.372;2023-06-10T03:26:13;10.70;;;3.00;;
36373;SDS011;22399;51.346;12.372;2023-06-10T03:28:44;10.88;;;3.28;;
36373;SDS011;22399;51.346;12.372;2023-06-10T03:31:15;7.10;;;2.58;;
36373;SDS011;22399;51.346;12.372;2023-06-10T03:33:44;8.35;;;2.72;;
36373;SDS011;22399;51.346;12.372;2023-06-10T03:36:13;8.57;;;2.90;;
36373;SDS011;22399;51.346;12.372;2023-06-10T03:38:41;9.77;;;3.85;;
36373;SDS011;22399;51.346;12.372;2023-06-10T03:41:10;9.27;;;2.97;;
36373;SDS011;22399;51.346;12.372;2023-06-10T03:43:40;10.80;;;3.17;;
36373;SDS011;22399;51.346;12.372;2023-06-10T03:46:09;7.72;;;3.30;;
36373;SDS011;22399;51.346;12.372;2023-06-10T03:48:39;10.43;;;3.72;;
36373;SDS011;22399;51.346;12.372;2023-06-10T03:51:08;6.88;;;2.90;;
36373;SDS011;22399;51.346;12.372;2023-06-10T03:53:37;12.98;;;3.22;;
36373;SDS011;22399;51.346;12.372;2023-06-10T03:56:05;8.35;;;3.03;;
36373;SDS011;22399;51.346;12.372;2023-06-10T03:58:34;8.15;;;3.63;;
36373;SDS011;22399;51.346;12.372;2023-06-10T04:01:03;16.58;;;2.80;;
36373;SDS011;22399;51.346;12.372;2023-06-10T04:03:34;6.50;;;3.08;;
36373;SDS011;22399;51.346;12.372;2023-06-10T04:06:04;6.82;;;2.83;;
36373;SDS011;22399;51.346;12.372;2023-06-10T04:08:33;5.35;;;3.08;;
36373;SDS011;22399;51.346;12.372;2023-06-10T04:11:02;8.50;;;2.55;;
36373;SDS011;22399;51.346;12.372;2023-06-10T04:13:31;10.60;;;3.88;;
36373;SDS011;22399;51.346;12.372;2023-06-10T04:15:59;13.77;;;2.70;;
36373;SDS011;22399;51.346;12.372;2023-06-10T04:18:29;10.20;;;3.30;;
36373;SDS011;22399;51.346;12.372;2023-06-10T04:21:04;10.25;;;3.25;;
36373;SDS011;22399;51.346;12.372;2023-06-10T04:23:32;7.57;;;2.85;;
36373;SDS011;22399;51.346;12.372;2023-06-10T04:26:01;12.77;;;2.80;;
36373;SDS011;22399;51.346;12.372;2023-06-10T04:28:30;11.50;;;3.13;;
36373;SDS011;22399;51.346;12.372;2023-06-10T04:30:58;7.90;;;3.35;;
36373;SDS011;22399;51.346;12.372;2023-06-10T04:33:28;15.77;;;3.15;;
36373;SDS011;22399;51.346;12.372;2023-06-10T04:35:57;10.25;;;3.17;;
36373;SDS011;22399;51.346;12.372;2023-06-10T04:38:30;15.02;;;2.83;;
36373;SDS011;22399;51.346;12.372;2023-06-10T04:40:59;4.97;;;3.00;;
36373;SDS011;22399;51.346;12.372;2023-06-10T04:43:31;7.53;;;3.38;;
36373;SDS011;22399;51.346;12.372;2023-06-10T04:46:00;9.05;;;3.10;;
36373;SDS011;22399;51.346;12.372;2023-06-10T04:48:29;8.65;;;3.20;;
36373;SDS011;22399;51.346;12.372;2023-06-10T04:50:58;7.68;;;2.83;;
36373;SDS011;22399;51.346;12.372;2023-06-10T04:53:27;6.90;;;3.05;;
36373;SDS011;22399;51.346;12.372;2023-06-10T04:55:57;7.43;;;2.92;;
36373;SDS011;22399;51.346;12.372;2023-06-10T04:58:26;17.25;;;3.38;;
36373;SDS011;22399;51.346;12.372;2023-06-10T05:00:54;12.35;;;3.00;;
36373;SDS011;22399;51.346;12.372;2023-06-10T05:03:23;11.50;;;3.25;;
36373;SDS011;22399;51.346;12.372;2023-06-10T05:05:51;8.93;;;3.13;;
36373;SDS011;22399;51.346;12.372;2023-06-10T05:08:20;11.52;;;2.80;;
36373;SDS011;22399;51.346;12.372;2023-06-10T05:10:48;6.65;;;2.70;;
36373;SDS011;22399;51.346;12.372;2023-06-10T05:13:18;15.27;;;3.35;;
36373;SDS011;22399;51.346;12.372;2023-06-10T05:15:46;9.52;;;3.00;;
36373;SDS011;22399;51.346;12.372;2023-06-10T05:18:15;14.93;;;3.42;;
36373;SDS011;22399;51.346;12.372;2023-06-10T05:20:43;8.40;;;3.70;;
36373;SDS011;22399;51.346;12.372;2023-06-10T05:23:12;11.85;;;3.95;;
36373;SDS011;22399;51.346;12.372;2023-06-10T05:25:40;5.32;;;3.00;;
36373;SDS011;22399;51.346;12.372;2023-06-10T05:28:09;7.43;;;2.97;;
36373;SDS011;22399;51.346;12.372;2023-06-10T05:30:42;6.55;;;3.08;;
36373;SDS011;22399;51.346;12.372;2023-06-10T05:33:11;6.30;;;3.00;;
36373;SDS011;22399;51.346;12.372;2023-06-10T05:35:39;13.15;;;4.15;;
36373;SDS011;22399;51.346;12.372;2023-06-10T05:38:08;11.98;;;4.30;;
36373;SDS011;22399;51.346;12.372;2023-06-10T05:40:36;7.93;;;3.70;;
36373;SDS011;22399;51.346;12.372;2023-06-10T05:43:04;8.15;;;4.25;;
36373;SDS011;22399;51.346;12.372;2023-06-10T05:45:33;9.18;;;3.30;;
36373;SDS011;22399;51.346;12.372;2023-06-10T05:48:03;8.00;;;3.67;;
36373;SDS011;22399;51.346;12.372;2023-06-10T05:50:31;7.40;;;2.50;;
36373;SDS011;22399;51.346;12.372;2023-06-10T05:53:05;10.85;;;3.30;;
36373;SDS011;22399;51.346;12.372;2023-06-10T05:55:34;5.70;;;2.83;;
36373;SDS011;22399;51.346;12.372;2023-06-10T05:58:03;13.18;;;3.35;;
36373;SDS011;22399;51.346;12.372;2023-06-10T06:00:31;7.00;;;3.28;;
36373;SDS011;22399;51.346;12.372;2023-06-10T06:03:05;9.00;;;3.10;;
36373;SDS011;22399;51.346;12.372;2023-06-10T06:05:35;19.33;;;3.70;;
36373;SDS011;22399;51.346;12.372;2023-06-10T06:08:05;7.28;;;2.88;;
36373;SDS011;22399;51.346;12.372;2023-06-10T06:10:34;5.43;;;3.20;;
36373;SDS011;22399;51.346;12.372;2023-06-10T06:13:02;11.40;;;2.75;;
36373;SDS011;22399;51.346;12.372;2023-06-10T06:15:31;9.70;;;2.45;;
36373;SDS011;22399;51.346;12.372;2023-06-10T06:17:59;10.20;;;2.85;;
36373;SDS011;22399;51.346;12.372;2023-06-10T06:20:30;5.18;;;2.47;;
36373;SDS011;22399;51.346;12.372;2023-06-10T06:22:58;7.50;;;2.70;;
36373;SDS011;22399;51.346;12.372;2023-06-10T06:25:27;10.57;;;3.50;;
36373;SDS011;22399;51.346;12.372;2023-06-10T06:27:55;13.45;;;3.08;;
36373;SDS011;22399;51.346;12.372;2023-06-10T06:30:24;7.85;;;2.92;;
36373;SDS011;22399;51.346;12.372;2023-06-10T06:32:53;6.60;;;3.00;;
36373;SDS011;22399;51.346;12.372;2023-06-10T06:35:21;9.05;;;2.78;;
36373;SDS011;22399;51.346;12.372;2023-06-10T06:37:51;8.32;;;2.90;;
36373;SDS011;22399;51.346;12.372;2023-06-10T06:40:24;6.07;;;3.10;;
36373;SDS011;22399;51.346;12.372;2023-06-10T06:42:53;10.23;;;3.00;;
36373;SDS011;22399;51.346;12.372;2023-06-10T06:45:57;4.63;;;2.72;;
36373;SDS011;22399;51.346;12.372;2023-06-10T06:48:26;14.60;;;3.47;;
36373;SDS011;22399;51.346;12.372;2023-06-10T06:50:54;5.97;;;2.50;;
36373;SDS011;22399;51.346;12.372;2023-06-10T06:53:26;9.23;;;2.70;;
36373;SDS011;22399;51.346;12.372;2023-06-10T06:56:00;6.20;;;2.75;;
36373;SDS011;22399;51.346;12.372;2023-06-10T06:58:29;6.57;;;2.65;;
36373;SDS011;22399;51.346;12.372;2023-06-10T07:00:58;11.32;;;3.72;;
36373;SDS011;22399;51.346;12.372;2023-06-10T07:03:26;11.30;;;2.95;;
36373;SDS011;22399;51.346;12.372;2023-06-10T07:05:55;12.50;;;3.88;;
36373;SDS011;22399;51.346;12.372;2023-06-10T07:08:23;11.55;;;3.10;;
36373;SDS011;22399;51.346;12.372;2023-06-10T07:10:53;9.48;;;3.17;;
36373;SDS011;22399;51.346;12.372;2023-06-10T07:13:21;6.22;;;3.15;;
36373;SDS011;22399;51.346;12.372;2023-06-10T07:15:50;11.38;;;3.25;;
36373;SDS011;22399;51.346;12.372;2023-06-10T07:18:18;13.23;;;3.70;;
36373;SDS011;22399;51.346;12.372;2023-06-10T07:20:46;7.00;;;2.55;;
36373;SDS011;22399;51.346;12.372;2023-06-10T07:23:15;9.30;;;3.38;;
36373;SDS011;22399;51.346;12.372;2023-06-10T07:25:43;12.68;;;4.18;;
36373;SDS011;22399;51.346;12.372;2023-06-10T07:28:13;8.48;;;3.40;;
36373;SDS011;22399;51.346;12.372;2023-06-10T07:30:41;9.88;;;3.33;;
36373;SDS011;22399;51.346;12.372;2023-06-10T07:33:10;7.63;;;3.85;;
36373;SDS011;22399;51.346;12.372;2023-06-10T07:35:38;9.23;;;3.63;;
36373;SDS011;22399;51.346;12.372;2023-06-10T07:38:09;6.72;;;3.50;;
36373;SDS011;22399;51.346;12.372;2023-06-10T07:40:38;6.35;;;3.42;;
36373;SDS011;22399;51.346;12.372;2023-06-10T07:43:06;6.68;;;3.00;;
36373;SDS011;22399;51.346;12.372;2023-06-10T07:45:36;14.38;;;4.05;;
36373;SDS011;22399;51.346;12.372;2023-06-10T07:48:06;10.95;;;3.38;;
36373;SDS011;22399;51.346;12.372;2023-06-10T07:50:35;9.50;;;3.33;;
36373;SDS011;22399;51.346;12.372;2023-06-10T07:53:03;7.57;;;3.05;;
36373;SDS011;22399;51.346;12.372;2023-06-10T07:55:32;6.93;;;3.47;;
36373;SDS011;22399;51.346;12.372;2023-06-10T07:58:01;9.15;;;3.55;;
36373;SDS011;22399;51.346;12.372;2023-06-10T08:00:29;7.57;;;3.97;;
36373;SDS011;22399;51.346;12.372;2023-06-10T08:02:59;9.18;;;3.47;;
36373;SDS011;22399;51.346;12.372;2023-06-10T08:05:27;10.43;;;3.30;;
36373;SDS011;22399;51.346;12.372;2023-06-10T08:07:55;12.02;;;4.28;;
36373;SDS011;22399;51.346;12.372;2023-06-10T08:10:28;11.52;;;3.97;;
36373;SDS011;22399;51.346;12.372;2023-06-10T08:12:57;10.82;;;3.53;;
36373;SDS011;22399;51.346;12.372;2023-06-10T08:15:25;7.72;;;3.28;;
36373;SDS011;22399;51.346;12.372;2023-06-10T08:17:54;12.20;;;3.60;;
36373;SDS011;22399;51.346;12.372;2023-06-10T08:20:24;6.15;;;3.03;;
36373;SDS011;22399;51.346;12.372;2023-06-10T08:22:53;9.50;;;3.08;;
36373;SDS011;22399;51.346;12.372;2023-06-10T08:25:22;7.35;;;3.30;;
36373;SDS011;22399;51.346;12.372;2023-06-10T08:27:50;8.27;;;3.35;;
36373;SDS011;22399;51.346;12.372;2023-06-10T08:30:19;10.93;;;3.53;;
36373;SDS011;22399;51.346;12.372;2023-06-10T08:32:47;8.45;;;3.40;;
36373;SDS011;22399;51.346;12.372;2023-06-10T08:35:16;9.02;;;3.28;;
36373;SDS011;22399;51.346;12.372;2023-06-10T08:37:46;10.98;;;4.70;;
36373;SDS011;22399;51.346;12.372;2023-06-10T08:40:15;15.13;;;5.60;;
36373;SDS011;22399;51.346;12.372;2023-06-10T08:42:45;9.75;;;3.63;;
36373;SDS011;22399;51.346;12.372;2023-06-10T08:45:17;6.78;;;3.55;;
36373;SDS011;22399;51.346;12.372;2023-06-10T08:47:46;7.43;;;3.53;;
36373;SDS011;22399;51.346;12.372;2023-06-10T08:50:19;6.93;;;3.15;;
36373;SDS011;22399;51.346;12.372;2023-06-10T08:52:52;11.43;;;3.28;;
36373;SDS011;22399;51.346;12.372;2023-06-10T08:55:27;11.43;;;3.80;;
36373;SDS011;22399;51.346;12.372;2023-06-10T08:57:59;9.15;;;3.55;;
36373;SDS011;22399;51.346;12.372;2023-06-10T09:00:30;8.65;;;3.70;;
36373;SDS011;22399;51.346;12.372;2023-06-10T09:02:59;7.65;;;3.17;;
36373;SDS011;22399;51.346;12.372;2023-06-10T09:05:33;11.20;;;3.40;;
36373;SDS011;22399;51.346;12.372;2023-06-10T09:08:05;9.77;;;3.95;;
36373;SDS011;22399;51.346;12.372;2023-06-10T09:10:34;12.43;;;3.25;;
36373;SDS011;22399;51.346;12.372;2023-06-10T09:13:03;6.07;;;3.65;;
36373;SDS011;22399;51.346;12.372;2023-06-10T09:15:31;15.77;;;4.03;;
36373;SDS011;22399;51.346;12.372;2023-06-10T09:18:00;11.23;;;4.53;;
36373;SDS011;22399;51.346;12.372;2023-06-10T09:20:29;7.32;;;3.50;;
36373;SDS011;22399;51.346;12.372;2023-06-10T09:22:57;21.25;;;4.18;;
36373;SDS011;22399;51.346;12.372;2023-06-10T09:25:35;8.00;;;3.05;;
36373;SDS011;22399;51.346;12.372;2023-06-10T09:28:04;6.93;;;3.22;;
36373;SDS011;22399;51.346;12.372;2023-06-10T09:30:40;5.82;;;3.25;;
36373;SDS011;22399;51.346;12.372;2023-06-10T09:33:12;5.82;;;2.97;;
36373;SDS011;22399;51.346;12.372;2023-06-10T09:35:45;8.85;;;3.45;;
36373;SDS011;22399;51.346;12.372;2023-06-10T09:38:15;10.73;;;3.03;;
36373;SDS011;22399;51.346;12.372;2023-06-10T09:40:49;5.43;;;3.20;;
36373;SDS011;22399;51.346;12.372;2023-06-10T09:43:18;5.72;;;3.10;;
36373;SDS011;22399;51.346;12.372;2023-06-10T09:45:47;5.22;;;3.00;;
36373;SDS011;22399;51.346;12.372;2023-06-10T09:48:17;12.27;;;3.65;;
36373;SDS011;22399;51.346;12.372;2023-06-10T09:50:45;4.97;;;2.85;;
36373;SDS011;22399;51.346;12.372;2023-06-10T09:53:14;10.15;;;3.55;;
36373;SDS011;22399;51.346;12.372;2023-06-10T09:55:45;8.85;;;2.85;;
36373;SDS011;22399;51.346;12.372;2023-06-10T09:58:15;6.90;;;3.47;;
36373;SDS011;22399;51.346;12.372;2023-06-10T10:00:43;11.23;;;3.90;;
36373;SDS011;22399;51.346;12.372;2023-06-10T10:03:21;10.02;;;4.03;;
36373;SDS011;22399;51.346;12.372;2023-06-10T10:05:54;5.85;;;3.17;;
36373;SDS011;22399;51.346;12.372;2023-06-10T10:08:27;8.00;;;2.97;;
36373;SDS011;22399;51.346;12.372;2023-06-10T10:10:56;7.75;;;4.45;;
36373;SDS011;22399;51.346;12.372;2023-06-10T10:13:27;8.73;;;3.90;;
36373;SDS011;22399;51.346;12.372;2023-06-10T10:15:56;5.72;;;3.83;;
36373;SDS011;22399;51.346;12.372;2023-06-10T10:18:29;9.18;;;4.10;;
36373;SDS011;22399;51.346;12.372;2023-06-10T10:21:01;5.25;;;3.35;;
36373;SDS011;22399;51.346;12.372;2023-06-10T10:23:34;8.98;;;4.47;;
36373;SDS011;22399;51.346;12.372;2023-06-10T10:26:09;10.00;;;3.90;;
36373;SDS011;22399;51.346;12.372;2023-06-10T10:28:41;10.63;;;4.20;;
36373;SDS011;22399;51.346;12.372;2023-06-10T10:31:13;9.88;;;4.65;;
36373;SDS011;22399;51.346;12.372;2023-06-10T10:33:48;4.97;;;3.22;;
36373;SDS011;22399;51.346;12.372;2023-06-10T10:36:23;7.80;;;4.32;;
36373;SDS011;22399;51.346;12.372;2023-06-10T10:38:52;7.60;;;3.88;;
36373;SDS011;22399;51.346;12.372;2023-06-10T10:41:21;10.55;;;3.80;;
36373;SDS011;22399;51.346;12.372;2023-06-10T10:43:54;11.82;;;3.47;;
36373;SDS011;22399;51.346;12.372;2023-06-10T10:46:23;9.10;;;4.13;;
36373;SDS011;22399;51.346;12.372;2023-06-10T10:48:52;12.65;;;4.15;;
36373;SDS011;22399;51.346;12.372;2023-06-10T10:51:24;8.50;;;3.80;;
36373;SDS011;22399;51.346;12.372;2023-06-10T10:54:11;8.88;;;4.32;;
36373;SDS011;22399;51.346;12.372;2023-06-10T10:59:53;7.45;;;3.58;;
36373;SDS011;22399;51.346;12.372;2023-06-10T11:02:33;7.10;;;4.07;;
36373;SDS011;22399;51.346;12.372;2023-06-10T11:05:05;6.70;;;4.05;;
36373;SDS011;22399;51.346;12.372;2023-06-10T11:07:36;7.20;;;4.38;;
36373;SDS011;22399;51.346;12.372;2023-06-10T11:10:08;10.05;;;4.45;;
36373;SDS011;22399;51.346;12.372;2023-06-10T11:12:51;7.50;;;3.88;;
36373;SDS011;22399;51.346;12.372;2023-06-10T11:15:23;3.97;;;3.05;;
36373;SDS011;22399;51.346;12.372;2023-06-10T11:18:08;8.65;;;4.22;;
36373;SDS011;22399;51.346;12.372;2023-06-10T11:20:54;6.82;;;3.50;;
36373;SDS011;22399;51.346;12.372;2023-06-10T11:23:25;9.23;;;3.53;;
36373;SDS011;22399;51.346;12.372;2023-06-10T11:29:11;9.38;;;3.88;;
36373;SDS011;22399;51.346;12.372;2023-06-10T11:31:44;5.22;;;3.63;;
36373;SDS011;22399;51.346;12.372;2023-06-10T11:34:21;5.90;;;3.60;;
36373;SDS011;22399;51.346;12.372;2023-06-10T11:36:51;7.40;;;3.63;;
36373;SDS011;22399;51.346;12.372;2023-06-10T11:39:21;5.93;;;3.42;;
36373;SDS011;22399;51.346;12.372;2023-06-10T11:41:53;6.10;;;4.05;;
36373;SDS011;22399;51.346;12.372;2023-06-10T11:44:22;5.35;;;3.60;;
36373;SDS011;22399;51.346;12.372;2023-06-10T11:46:57;10.55;;;4.60;;
36373;SDS011;22399;51.346;12.372;2023-06-10T11:49:26;6.22;;;3.70;;
36373;SDS011;22399;51.346;12.372;2023-06-10T11:51:54;13.07;;;3.90;;
36373;SDS011;22399;51.346;12.372;2023-06-10T11:54:23;8.48;;;3.83;;
36373;SDS011;22399;51.346;12.372;2023-06-10T11:56:56;10.43;;;4.15;;
36373;SDS011;22399;51.346;12.372;2023-06-10T11:59:27;9.88;;;4.18;;
36373;SDS011;22399;51.346;12.372;2023-06-10T12:01:58;9.07;;;3.70;;
36373;SDS011;22399;51.346;12.372;2023-06-10T12:04:27;8.38;;;4.15;;
36373;SDS011;22399;51.346;12.372;2023-06-10T12:06:55;8.10;;;3.50;;
36373;SDS011;22399;51.346;12.372;2023-06-10T12:09:24;6.22;;;3.30;;
36373;SDS011;22399;51.346;12.372;2023-06-10T12:11:55;9.75;;;3.42;;
36373;SDS011;22399;51.346;12.372;2023-06-10T12:14:49;5.13;;;3.20;;
36373;SDS011;22399;51.346;12.372;2023-06-10T12:17:22;11.45;;;3.38;;
36373;SDS011;22399;51.346;12.372;2023-06-10T12:19:51;9.85;;;3.22;;
36373;SDS011;22399;51.346;12.372;2023-06-10T12:22:20;8.82;;;4.00;;
36373;SDS011;22399;51.346;12.372;2023-06-10T12:25:00;8.23;;;3.70;;
36373;SDS011;22399;51.346;12.372;2023-06-10T12:27:33;9.50;;;3.50;;
36373;SDS011;22399;51.346;12.372;2023-06-10T12:30:04;5.00;;;3.58;;
36373;SDS011;22399;51.346;12.372;2023-06-10T12:32:39;8.02;;;3.42;;
36373;SDS011;22399;51.346;12.372;2023-06-10T12:35:09;7.22;;;3.30;;
36373;SDS011;22399;51.346;12.372;2023-06-10T12:37:40;8.10;;;3.38;;
36373;SDS011;22399;51.346;12.372;2023-06-10T12:40:10;7.00;;;3.72;;
36373;SDS011;22399;51.346;12.372;2023-06-10T12:42:39;8.25;;;2.95;;
36373;SDS011;22399;51.346;12.372;2023-06-10T12:45:08;4.45;;;2.97;;
36373;SDS011;22399;51.346;12.372;2023-06-10T12:47:41;7.82;;;3.28;;
36373;SDS011;22399;51.346;12.372;2023-06-10T12:50:09;6.53;;;2.97;;
36373;SDS011;22399;51.346;12.372;2023-06-10T12:52:39;5.28;;;2.33;;
36373;SDS011;22399;51.346;12.372;2023-06-10T12:55:09;24.48;;;3.38;;
36373;SDS011;22399;51.346;12.372;2023-06-10T12:57:47;10.57;;;3.05;;
36373;SDS011;22399;51.346;12.372;2023-06-10T13:00:17;7.00;;;2.22;;
36373;SDS011;22399;51.346;12.372;2023-06-10T13:02:47;8.63;;;2.88;;
36373;SDS011;22399;51.346;12.372;2023-06-10T13:05:17;7.07;;;2.78;;
36373;SDS011;22399;51.346;12.372;2023-06-10T13:07:47;6.30;;;3.15;;
36373;SDS011;22399;51.346;12.372;2023-06-10T13:10:17;7.88;;;3.22;;
36373;SDS011;22399;51.346;12.372;2023-06-10T13:12:51;6.45;;;3.22;;
36373;SDS011;22399;51.346;12.372;2023-06-10T13:15:21;6.18;;;3.38;;
36373;SDS011;22399;51.346;12.372;2023-06-10T13:17:54;12.00;;;3.92;;
36373;SDS011;22399;51.346;12.372;2023-06-10T13:20:23;8.32;;;4.38;;
36373;SDS011;22399;51.346;12.372;2023-06-10T13:22:52;10.57;;;3.67;;
36373;SDS011;22399;51.346;12.372;2023-06-10T13:25:21;6.43;;;3.83;;
36373;SDS011;22399;51.346;12.372;2023-06-10T13:27:50;6.80;;;3.40;;
36373;SDS011;22399;51.346;12.372;2023-06-10T13:30:18;6.60;;;4.05;;
36373;SDS011;22399;51.346;12.372;2023-06-10T13:32:47;5.43;;;3.28;;
36373;SDS011;22399;51.346;12.372;2023-06-10T13:35:17;5.43;;;2.88;;
36373;SDS011;22399;51.346;12.372;2023-06-10T13:37:46;5.18;;;2.33;;
36373;SDS011;22399;51.346;12.372;2023-06-10T13:40:14;5.72;;;2.50;;
36373;SDS011;22399;51.346;12.372;2023-06-10T13:42:43;6.10;;;2.30;;
36373;SDS011;22399;51.346;12.372;2023-06-10T13:45:12;3.22;;;1.95;;
36373;SDS011;22399;51.346;12.372;2023-06-10T13:47:59;3.85;;;2.17;;
36373;SDS011;22399;51.346;12.372;2023-06-10T13:50:31;3.05;;;2.08;;
36373;SDS011;22399;51.346;12.372;2023-06-10T13:53:00;8.60;;;3.00;;
36373;SDS011;22399;51.346;12.372;2023-06-10T13:55:30;9.85;;;2.13;;
36373;SDS011;22399;51.346;12.372;2023-06-10T13:57:59;5.22;;;2.13;;
36373;SDS011;22399;51.346;12.372;2023-06-10T14:00:27;5.13;;;2.38;;
36373;SDS011;22399;51.346;12.372;2023-06-10T14:02:56;7.70;;;2.40;;
36373;SDS011;22399;51.346;12.372;2023-06-10T14:05:25;12.50;;;2.20;;
36373;SDS011;22399;51.346;12.372;2023-06-10T14:07:58;4.75;;;1.95;;
36373;SDS011;22399;51.346;12.372;2023-06-10T14:10:27;2.20;;;1.40;;
36373;SDS011;22399;51.346;12.372;2023-06-10T14:12:55;14.68;;;1.73;;
36373;SDS011;22399;51.346;12.372;2023-06-10T14:15:24;12.35;;;2.33;;
36373;SDS011;22399;51.346;12.372;2023-06-10T14:17:53;2.13;;;1.45;;
36373;SDS011;22399;51.346;12.372;2023-06-10T14:20:21;9.52;;;2.13;;
36373;SDS011;22399;51.346;12.372;2023-06-10T14:22:52;7.18;;;2.63;;
36373;SDS011;22399;51.346;12.372;2023-06-10T14:25:22;3.67;;;2.00;;
36373;SDS011;22399;51.346;12.372;2023-06-10T14:27:50;9.07;;;2.67;;
36373;SDS011;22399;51.346;12.372;2023-06-10T14:30:19;5.07;;;2.75;;
36373;SDS011;22399;51.346;12.372;2023-06-10T14:32:47;4.55;;;2.15;;
36373;SDS011;22399;51.346;12.372;2023-06-10T14:35:16;6.68;;;2.70;;
36373;SDS011;22399;51.346;12.372;2023-06-10T14:37:45;2.60;;;1.80;;
36373;SDS011;22399;51.346;12.372;2023-06-10T14:40:13;3.35;;;1.77;;
36373;SDS011;22399;51.346;12.372;2023-06-10T14:42:43;3.85;;;1.40;;
36373;SDS011;22399;51.346;12.372;2023-06-10T14:45:12;3.10;;;1.90;;
36373;SDS011;22399;51.346;12.372;2023-06-10T14:47:41;5.72;;;1.73;;
36373;SDS011;22399;51.346;12.372;2023-06-10T14:50:10;2.72;;;1.92;;
36373;SDS011;22399;51.346;12.372;2023-06-10T14:52:38;4.35;;;1.63;;
36373;SDS011;22399;51.346;12.372;2023-06-10T14:55:07;4.60;;;2.35;;